sensor_id;sensor_type;location;lat;lon;timestamp;temperature;humidity
2435;DHT22;1228;51.022;6.764;2023-12-20T00:00:41;8.00;99.90
2435;DHT22;1228;51.022;6.764;2023-12-20T00:03:07;8.00;99.90
2435;DHT22;1228;51.022;6.764;2023-12-20T00:05:32;8.00;99.90
2435;DHT22;1228;51.022;6.764;2023-12-20T00:07:58;8.00;99.90
2435;DHT22;1228;51.022;6.764;2023-12-20T00:10:24;8.00;99.90
2435;DHT22;1228;51.022;6.764;2023-12-20T00:12:49;8.00;99.90
2435;DHT22;1228;51.022;6.764;2023-12-20T00:15:15;8.10;99.90
2435;DHT22;1228;51.022;6.764;2023-12-20T00:17:41;8.00;99.90
2435;DHT22;1228;51.022;6.764;2023-12-20T00:20:07;8.00;99.90
2435;DHT22;1228;51.022;6.764;2023-12-20T00:22:32;7.80;99.90
2435;DHT22;1228;51.022;6.764;2023-12-20T00:24:58;7.80;99.90
2435;DHT22;1228;51.022;6.764;2023-12-20T00:27:23;7.80;99.90
2435;DHT22;1228;51.022;6.764;2023-12-20T00:29:49;7.70;99.90
2435;DHT22;1228;51.022;6.764;2023-12-20T00:32:16;7.70;99.90
2435;DHT22;1228;51.022;6.764;2023-12-20T00:34:42;7.60;99.90
2435;DHT22;1228;51.022;6.764;2023-12-20T00:37:08;7.50;99.90
2435;DHT22;1228;51.022;6.764;2023-12-20T00:39:34;7.50;99.90
2435;DHT22;1228;51.022;6.764;2023-12-20T00:41:59;7.40;99.90
2435;DHT22;1228;51.022;6.764;2023-12-20T00:44:25;7.40;99.90
2435;DHT22;1228;51.022;6.764;2023-12-20T00:46:51;7.30;99.90
2435;DHT22;1228;51.022;6.764;2023-12-20T00:49:17;7.30;99.90
2435;DHT22;1228;51.022;6.764;2023-12-20T00:51:42;7.40;99.90
2435;DHT22;1228;51.022;6.764;2023-12-20T00:54:08;7.40;99.90
2435;DHT22;1228;51.022;6.764;2023-12-20T00:56:34;7.40;99.90
2435;DHT22;1228;51.022;6.764;2023-12-20T00:59:00;7.40;99.90
2435;DHT22;1228;51.022;6.764;2023-12-20T01:01:26;7.40;99.90
2435;DHT22;1228;51.022;6.764;2023-12-20T01:03:51;7.30;99.90
2435;DHT22;1228;51.022;6.764;2023-12-20T01:06:18;7.30;99.90
2435;DHT22;1228;51.022;6.764;2023-12-20T01:08:43;7.20;99.90
2435;DHT22;1228;51.022;6.764;2023-12-20T01:11:09;7.30;99.90
2435;DHT22;1228;51.022;6.764;2023-12-20T01:13:35;7.20;99.90
2435;DHT22;1228;51.022;6.764;2023-12-20T01:16:00;7.20;99.90
2435;DHT22;1228;51.022;6.764;2023-12-20T01:18:26;7.10;99.90
2435;DHT22;1228;51.022;6.764;2023-12-20T01:20:52;7.10;99.90
2435;DHT22;1228;51.022;6.764;2023-12-20T01:23:17;7.20;99.90
2435;DHT22;1228;51.022;6.764;2023-12-20T01:25:43;7.10;99.90
2435;DHT22;1228;51.022;6.764;2023-12-20T01:28:09;7.10;99.90
2435;DHT22;1228;51.022;6.764;2023-12-20T01:30:34;7.10;99.90
2435;DHT22;1228;51.022;6.764;2023-12-20T01:33:00;7.10;99.90
2435;DHT22;1228;51.022;6.764;2023-12-20T01:35:26;7.10;99.90
2435;DHT22;1228;51.022;6.764;2023-12-20T01:37:52;7.00;99.90
2435;DHT22;1228;51.022;6.764;2023-12-20T01:40:22;7.00;99.90
2435;DHT22;1228;51.022;6.764;2023-12-20T01:42:47;6.90;99.90
2435;DHT22;1228;51.022;6.764;2023-12-20T01:45:13;6.80;99.90
2435;DHT22;1228;51.022;6.764;2023-12-20T01:47:39;6.80;99.90
2435;DHT22;1228;51.022;6.764;2023-12-20T01:50:05;6.70;99.90
2435;DHT22;1228;51.022;6.764;2023-12-20T01:52:33;6.70;99.90
2435;DHT22;1228;51.022;6.764;2023-12-20T01:54:59;6.60;99.90
2435;DHT22;1228;51.022;6.764;2023-12-20T01:57:29;6.60;99.90
2435;DHT22;1228;51.022;6.764;2023-12-20T01:59:55;6.50;99.90
2435;DHT22;1228;51.022;6.764;2023-12-20T02:02:21;6.40;99.90
2435;DHT22;1228;51.022;6.764;2023-12-20T02:04:47;6.30;99.90
2435;DHT22;1228;51.022;6.764;2023-12-20T02:07:13;6.20;99.90
2435;DHT22;1228;51.022;6.764;2023-12-20T02:09:39;6.20;99.90
2435;DHT22;1228;51.022;6.764;2023-12-20T02:12:05;6.10;99.90
2435;DHT22;1228;51.022;6.764;2023-12-20T02:14:31;6.00;99.90
2435;DHT22;1228;51.022;6.764;2023-12-20T02:16:56;6.00;99.90
2435;DHT22;1228;51.022;6.764;2023-12-20T02:19:22;6.00;99.90
2435;DHT22;1228;51.022;6.764;2023-12-20T02:21:48;5.90;99.90
2435;DHT22;1228;51.022;6.764;2023-12-20T02:24:13;5.90;99.90
2435;DHT22;1228;51.022;6.764;2023-12-20T02:26:39;5.90;99.90
2435;DHT22;1228;51.022;6.764;2023-12-20T02:29:05;5.90;99.90
2435;DHT22;1228;51.022;6.764;2023-12-20T02:31:30;5.80;99.90
2435;DHT22;1228;51.022;6.764;2023-12-20T02:33:56;5.80;99.90
2435;DHT22;1228;51.022;6.764;2023-12-20T02:36:21;5.90;99.90
2435;DHT22;1228;51.022;6.764;2023-12-20T02:38:47;5.80;99.90
2435;DHT22;1228;51.022;6.764;2023-12-20T02:41:13;5.90;99.90
2435;DHT22;1228;51.022;6.764;2023-12-20T02:43:41;5.90;99.90
2435;DHT22;1228;51.022;6.764;2023-12-20T02:46:06;6.00;99.90
2435;DHT22;1228;51.022;6.764;2023-12-20T02:48:32;6.00;99.90
2435;DHT22;1228;51.022;6.764;2023-12-20T02:50:57;6.10;99.90
2435;DHT22;1228;51.022;6.764;2023-12-20T02:53:23;6.10;99.90
2435;DHT22;1228;51.022;6.764;2023-12-20T02:55:49;6.10;99.90
2435;DHT22;1228;51.022;6.764;2023-12-20T02:58:14;6.00;99.90
2435;DHT22;1228;51.022;6.764;2023-12-20T03:00:40;6.10;99.90
2435;DHT22;1228;51.022;6.764;2023-12-20T03:03:05;6.10;99.90
2435;DHT22;1228;51.022;6.764;2023-12-20T03:05:31;6.10;99.90
2435;DHT22;1228;51.022;6.764;2023-12-20T03:07:58;6.20;99.90
2435;DHT22;1228;51.022;6.764;2023-12-20T03:10:23;6.20;99.90
2435;DHT22;1228;51.022;6.764;2023-12-20T03:12:49;6.30;99.90
2435;DHT22;1228;51.022;6.764;2023-12-20T03:15:14;6.20;99.90
2435;DHT22;1228;51.022;6.764;2023-12-20T03:17:40;6.20;99.90
2435;DHT22;1228;51.022;6.764;2023-12-20T03:20:06;6.10;99.90
2435;DHT22;1228;51.022;6.764;2023-12-20T03:22:32;6.10;99.90
2435;DHT22;1228;51.022;6.764;2023-12-20T03:24:57;6.10;99.90
2435;DHT22;1228;51.022;6.764;2023-12-20T03:27:23;6.10;99.90
2435;DHT22;1228;51.022;6.764;2023-12-20T03:29:49;6.10;99.90
2435;DHT22;1228;51.022;6.764;2023-12-20T03:32:14;6.00;99.90
2435;DHT22;1228;51.022;6.764;2023-12-20T03:34:40;6.00;99.90
2435;DHT22;1228;51.022;6.764;2023-12-20T03:37:05;6.00;99.90
2435;DHT22;1228;51.022;6.764;2023-12-20T03:39:31;6.00;99.90
2435;DHT22;1228;51.022;6.764;2023-12-20T03:41:57;5.90;99.90
2435;DHT22;1228;51.022;6.764;2023-12-20T03:44:22;5.90;99.90
2435;DHT22;1228;51.022;6.764;2023-12-20T03:46:48;6.00;99.90
2435;DHT22;1228;51.022;6.764;2023-12-20T03:49:14;6.00;99.90
2435;DHT22;1228;51.022;6.764;2023-12-20T03:51:40;6.10;99.90
2435;DHT22;1228;51.022;6.764;2023-12-20T03:54:05;6.10;99.90
2435;DHT22;1228;51.022;6.764;2023-12-20T03:56:31;6.10;99.90
2435;DHT22;1228;51.022;6.764;2023-12-20T03:58:56;6.10;99.90
2435;DHT22;1228;51.022;6.764;2023-12-20T04:01:22;6.10;99.90
2435;DHT22;1228;51.022;6.764;2023-12-20T04:03:47;6.10;99.90
2435;DHT22;1228;51.022;6.764;2023-12-20T04:06:17;6.00;99.90
2435;DHT22;1228;51.022;6.764;2023-12-20T04:08:43;6.10;99.90
2435;DHT22;1228;51.022;6.764;2023-12-20T04:11:08;6.10;99.90
2435;DHT22;1228;51.022;6.764;2023-12-20T04:13:34;6.10;99.90
2435;DHT22;1228;51.022;6.764;2023-12-20T04:15:59;6.10;99.90
2435;DHT22;1228;51.022;6.764;2023-12-20T04:18:25;6.10;99.90
2435;DHT22;1228;51.022;6.764;2023-12-20T04:20:51;6.10;99.90
2435;DHT22;1228;51.022;6.764;2023-12-20T04:23:17;6.10;99.90
2435;DHT22;1228;51.022;6.764;2023-12-20T04:25:42;6.10;99.90
2435;DHT22;1228;51.022;6.764;2023-12-20T04:28:08;6.10;99.90
2435;DHT22;1228;51.022;6.764;2023-12-20T04:30:33;6.10;99.90
2435;DHT22;1228;51.022;6.764;2023-12-20T04:32:59;6.00;99.90
2435;DHT22;1228;51.022;6.764;2023-12-20T04:35:24;6.00;99.90
2435;DHT22;1228;51.022;6.764;2023-12-20T04:37:50;6.00;99.90
2435;DHT22;1228;51.022;6.764;2023-12-20T04:40:16;6.00;99.90
2435;DHT22;1228;51.022;6.764;2023-12-20T04:42:41;6.00;99.90
2435;DHT22;1228;51.022;6.764;2023-12-20T04:45:07;6.00;99.90
2435;DHT22;1228;51.022;6.764;2023-12-20T04:47:33;6.00;99.90
2435;DHT22;1228;51.022;6.764;2023-12-20T04:49:58;6.00;99.90
2435;DHT22;1228;51.022;6.764;2023-12-20T04:52:24;5.90;99.90
2435;DHT22;1228;51.022;6.764;2023-12-20T04:54:50;5.90;99.90
2435;DHT22;1228;51.022;6.764;2023-12-20T04:57:16;5.80;99.90
2435;DHT22;1228;51.022;6.764;2023-12-20T04:59:41;5.80;99.90
2435;DHT22;1228;51.022;6.764;2023-12-20T05:02:07;5.80;99.90
2435;DHT22;1228;51.022;6.764;2023-12-20T05:04:32;5.80;99.90
2435;DHT22;1228;51.022;6.764;2023-12-20T05:06:58;5.70;99.90
2435;DHT22;1228;51.022;6.764;2023-12-20T05:09:23;5.80;99.90
2435;DHT22;1228;51.022;6.764;2023-12-20T05:11:49;5.80;99.90
2435;DHT22;1228;51.022;6.764;2023-12-20T05:14:15;5.80;99.90
2435;DHT22;1228;51.022;6.764;2023-12-20T05:16:40;5.80;99.90
2435;DHT22;1228;51.022;6.764;2023-12-20T05:19:07;5.80;99.90
2435;DHT22;1228;51.022;6.764;2023-12-20T05:21:32;5.80;99.90
2435;DHT22;1228;51.022;6.764;2023-12-20T05:23:59;5.80;99.90
2435;DHT22;1228;51.022;6.764;2023-12-20T05:26:24;5.90;99.90
2435;DHT22;1228;51.022;6.764;2023-12-20T05:28:50;5.80;99.90
2435;DHT22;1228;51.022;6.764;2023-12-20T05:31:15;5.80;99.90
2435;DHT22;1228;51.022;6.764;2023-12-20T05:33:41;5.70;99.90
2435;DHT22;1228;51.022;6.764;2023-12-20T05:36:06;5.70;99.90
2435;DHT22;1228;51.022;6.764;2023-12-20T05:38:36;5.70;99.90
2435;DHT22;1228;51.022;6.764;2023-12-20T05:41:02;5.70;99.90
2435;DHT22;1228;51.022;6.764;2023-12-20T05:43:28;5.60;99.90
2435;DHT22;1228;51.022;6.764;2023-12-20T05:45:53;5.70;99.90
2435;DHT22;1228;51.022;6.764;2023-12-20T05:48:19;5.70;99.90
2435;DHT22;1228;51.022;6.764;2023-12-20T05:50:44;5.70;99.90
2435;DHT22;1228;51.022;6.764;2023-12-20T05:53:10;5.80;99.90
2435;DHT22;1228;51.022;6.764;2023-12-20T05:55:35;5.80;99.90
2435;DHT22;1228;51.022;6.764;2023-12-20T05:58:01;5.80;99.90
2435;DHT22;1228;51.022;6.764;2023-12-20T06:00:26;5.80;99.90
2435;DHT22;1228;51.022;6.764;2023-12-20T06:02:52;5.90;99.90
2435;DHT22;1228;51.022;6.764;2023-12-20T06:05:18;5.90;99.90
2435;DHT22;1228;51.022;6.764;2023-12-20T06:07:43;5.90;99.90
2435;DHT22;1228;51.022;6.764;2023-12-20T06:10:10;6.00;99.90
2435;DHT22;1228;51.022;6.764;2023-12-20T06:12:36;6.00;99.90
2435;DHT22;1228;51.022;6.764;2023-12-20T06:15:02;6.00;99.90
2435;DHT22;1228;51.022;6.764;2023-12-20T06:17:28;6.10;99.90
2435;DHT22;1228;51.022;6.764;2023-12-20T06:19:56;6.10;99.90
2435;DHT22;1228;51.022;6.764;2023-12-20T06:22:21;6.10;99.90
2435;DHT22;1228;51.022;6.764;2023-12-20T06:24:47;6.20;99.90
2435;DHT22;1228;51.022;6.764;2023-12-20T06:27:12;6.20;99.90
2435;DHT22;1228;51.022;6.764;2023-12-20T06:29:38;6.30;99.90
2435;DHT22;1228;51.022;6.764;2023-12-20T06:32:04;6.30;99.90
2435;DHT22;1228;51.022;6.764;2023-12-20T06:34:30;6.20;99.90
2435;DHT22;1228;51.022;6.764;2023-12-20T06:36:55;6.30;99.90
2435;DHT22;1228;51.022;6.764;2023-12-20T06:39:21;6.40;99.90
2435;DHT22;1228;51.022;6.764;2023-12-20T06:41:46;6.40;99.90
2435;DHT22;1228;51.022;6.764;2023-12-20T06:44:12;6.40;99.90
2435;DHT22;1228;51.022;6.764;2023-12-20T06:46:37;6.40;99.90
2435;DHT22;1228;51.022;6.764;2023-12-20T06:49:03;6.50;99.90
2435;DHT22;1228;51.022;6.764;2023-12-20T06:51:29;6.50;99.90
2435;DHT22;1228;51.022;6.764;2023-12-20T06:53:56;6.50;99.90
2435;DHT22;1228;51.022;6.764;2023-12-20T06:56:21;6.50;99.90
2435;DHT22;1228;51.022;6.764;2023-12-20T06:58:47;6.60;99.90
2435;DHT22;1228;51.022;6.764;2023-12-20T07:01:13;6.50;99.90
2435;DHT22;1228;51.022;6.764;2023-12-20T07:03:39;6.60;99.90
2435;DHT22;1228;51.022;6.764;2023-12-20T07:06:05;6.60;99.90
2435;DHT22;1228;51.022;6.764;2023-12-20T07:08:31;6.60;99.90
2435;DHT22;1228;51.022;6.764;2023-12-20T07:10:56;6.60;99.90
2435;DHT22;1228;51.022;6.764;2023-12-20T07:13:22;6.60;99.90
2435;DHT22;1228;51.022;6.764;2023-12-20T07:15:48;6.60;99.90
2435;DHT22;1228;51.022;6.764;2023-12-20T07:18:14;6.60;99.90
2435;DHT22;1228;51.022;6.764;2023-12-20T07:20:39;6.60;99.90
2435;DHT22;1228;51.022;6.764;2023-12-20T07:23:05;6.50;99.90
2435;DHT22;1228;51.022;6.764;2023-12-20T07:25:31;6.60;99.90
2435;DHT22;1228;51.022;6.764;2023-12-20T07:27:59;6.70;99.90
2435;DHT22;1228;51.022;6.764;2023-12-20T07:30:25;6.60;99.90
2435;DHT22;1228;51.022;6.764;2023-12-20T07:32:50;6.60;99.90
2435;DHT22;1228;51.022;6.764;2023-12-20T07:35:17;6.60;99.90
2435;DHT22;1228;51.022;6.764;2023-12-20T07:37:43;6.60;99.90
2435;DHT22;1228;51.022;6.764;2023-12-20T07:40:09;6.60;99.90
2435;DHT22;1228;51.022;6.764;2023-12-20T07:42:35;6.50;99.90
2435;DHT22;1228;51.022;6.764;2023-12-20T07:45:01;6.60;99.90
2435;DHT22;1228;51.022;6.764;2023-12-20T07:47:27;6.50;99.90
2435;DHT22;1228;51.022;6.764;2023-12-20T07:49:52;6.60;99.90
2435;DHT22;1228;51.022;6.764;2023-12-20T07:52:18;6.60;99.90
2435;DHT22;1228;51.022;6.764;2023-12-20T07:54:45;6.60;99.90
2435;DHT22;1228;51.022;6.764;2023-12-20T07:57:11;6.70;99.90
2435;DHT22;1228;51.022;6.764;2023-12-20T07:59:37;6.70;99.90
2435;DHT22;1228;51.022;6.764;2023-12-20T08:02:02;6.70;99.90
2435;DHT22;1228;51.022;6.764;2023-12-20T08:04:28;6.60;99.90
2435;DHT22;1228;51.022;6.764;2023-12-20T08:06:54;6.60;99.90
2435;DHT22;1228;51.022;6.764;2023-12-20T08:09:19;6.60;99.90
2435;DHT22;1228;51.022;6.764;2023-12-20T08:11:46;6.60;99.90
2435;DHT22;1228;51.022;6.764;2023-12-20T08:14:12;6.60;99.90
2435;DHT22;1228;51.022;6.764;2023-12-20T08:16:37;6.50;99.90
2435;DHT22;1228;51.022;6.764;2023-12-20T08:19:03;6.60;99.90
2435;DHT22;1228;51.022;6.764;2023-12-20T08:21:28;6.60;99.90
2435;DHT22;1228;51.022;6.764;2023-12-20T08:23:55;6.50;99.90
2435;DHT22;1228;51.022;6.764;2023-12-20T08:26:20;6.50;99.90
2435;DHT22;1228;51.022;6.764;2023-12-20T08:28:48;6.50;99.90
2435;DHT22;1228;51.022;6.764;2023-12-20T08:31:15;6.50;99.90
2435;DHT22;1228;51.022;6.764;2023-12-20T08:33:44;6.60;99.90
2435;DHT22;1228;51.022;6.764;2023-12-20T08:36:10;6.70;99.90
2435;DHT22;1228;51.022;6.764;2023-12-20T08:38:36;6.70;99.90
2435;DHT22;1228;51.022;6.764;2023-12-20T08:41:02;6.70;99.90
2435;DHT22;1228;51.022;6.764;2023-12-20T08:43:30;6.70;99.90
2435;DHT22;1228;51.022;6.764;2023-12-20T08:45:56;6.70;99.90
2435;DHT22;1228;51.022;6.764;2023-12-20T08:48:22;6.70;99.90
2435;DHT22;1228;51.022;6.764;2023-12-20T08:50:47;6.80;99.90
2435;DHT22;1228;51.022;6.764;2023-12-20T08:53:15;6.80;99.90
2435;DHT22;1228;51.022;6.764;2023-12-20T08:55:41;6.80;99.90
2435;DHT22;1228;51.022;6.764;2023-12-20T08:58:07;6.80;99.90
2435;DHT22;1228;51.022;6.764;2023-12-20T09:00:34;6.90;99.90
2435;DHT22;1228;51.022;6.764;2023-12-20T09:03:00;6.90;99.90
2435;DHT22;1228;51.022;6.764;2023-12-20T09:05:26;6.80;99.90
2435;DHT22;1228;51.022;6.764;2023-12-20T09:07:52;6.80;99.90
2435;DHT22;1228;51.022;6.764;2023-12-20T09:10:17;6.80;99.90
2435;DHT22;1228;51.022;6.764;2023-12-20T09:12:48;6.80;99.90
2435;DHT22;1228;51.022;6.764;2023-12-20T09:15:14;6.80;99.90
2435;DHT22;1228;51.022;6.764;2023-12-20T09:17:40;6.80;99.90
2435;DHT22;1228;51.022;6.764;2023-12-20T09:22:34;6.80;99.90
2435;DHT22;1228;51.022;6.764;2023-12-20T09:25:00;6.90;99.90
2435;DHT22;1228;51.022;6.764;2023-12-20T09:27:27;7.00;99.90
2435;DHT22;1228;51.022;6.764;2023-12-20T09:29:53;7.00;99.90
2435;DHT22;1228;51.022;6.764;2023-12-20T09:32:19;7.00;99.90
2435;DHT22;1228;51.022;6.764;2023-12-20T09:34:46;7.00;99.90
2435;DHT22;1228;51.022;6.764;2023-12-20T09:37:13;7.00;99.90
2435;DHT22;1228;51.022;6.764;2023-12-20T09:39:39;7.10;99.90
2435;DHT22;1228;51.022;6.764;2023-12-20T09:42:05;7.00;99.90
2435;DHT22;1228;51.022;6.764;2023-12-20T09:44:32;7.10;99.90
2435;DHT22;1228;51.022;6.764;2023-12-20T09:47:05;7.10;99.90
2435;DHT22;1228;51.022;6.764;2023-12-20T09:49:31;7.10;99.90
2435;DHT22;1228;51.022;6.764;2023-12-20T09:51:59;7.10;99.90
2435;DHT22;1228;51.022;6.764;2023-12-20T09:54:26;7.10;99.90
2435;DHT22;1228;51.022;6.764;2023-12-20T09:56:52;7.10;99.90
2435;DHT22;1228;51.022;6.764;2023-12-20T09:59:18;7.10;99.90
2435;DHT22;1228;51.022;6.764;2023-12-20T10:01:44;7.10;99.90
2435;DHT22;1228;51.022;6.764;2023-12-20T10:04:11;7.20;99.90
2435;DHT22;1228;51.022;6.764;2023-12-20T10:06:44;7.20;99.90
2435;DHT22;1228;51.022;6.764;2023-12-20T10:09:11;7.20;99.90
2435;DHT22;1228;51.022;6.764;2023-12-20T10:11:37;7.20;99.90
2435;DHT22;1228;51.022;6.764;2023-12-20T10:14:03;7.30;99.90
2435;DHT22;1228;51.022;6.764;2023-12-20T10:16:29;7.30;99.90
2435;DHT22;1228;51.022;6.764;2023-12-20T10:18:56;7.40;99.90
2435;DHT22;1228;51.022;6.764;2023-12-20T10:21:25;7.40;99.90
2435;DHT22;1228;51.022;6.764;2023-12-20T10:23:57;7.50;99.90
2435;DHT22;1228;51.022;6.764;2023-12-20T10:26:27;7.50;99.90
2435;DHT22;1228;51.022;6.764;2023-12-20T10:28:54;7.60;99.90
2435;DHT22;1228;51.022;6.764;2023-12-20T10:31:33;7.50;99.90
2435;DHT22;1228;51.022;6.764;2023-12-20T10:34:01;7.60;99.90
2435;DHT22;1228;51.022;6.764;2023-12-20T10:36:32;7.60;99.90
2435;DHT22;1228;51.022;6.764;2023-12-20T10:38:58;7.60;99.90
2435;DHT22;1228;51.022;6.764;2023-12-20T10:44:04;7.60;99.90
2435;DHT22;1228;51.022;6.764;2023-12-20T10:46:34;7.70;99.90
2435;DHT22;1228;51.022;6.764;2023-12-20T10:49:02;7.70;99.90
2435;DHT22;1228;51.022;6.764;2023-12-20T10:51:28;7.60;99.90
2435;DHT22;1228;51.022;6.764;2023-12-20T10:53:55;7.60;99.90
2435;DHT22;1228;51.022;6.764;2023-12-20T10:56:22;7.60;99.90
2435;DHT22;1228;51.022;6.764;2023-12-20T10:58:49;7.60;99.90
2435;DHT22;1228;51.022;6.764;2023-12-20T11:01:16;7.50;99.90
2435;DHT22;1228;51.022;6.764;2023-12-20T11:03:51;7.60;99.90
2435;DHT22;1228;51.022;6.764;2023-12-20T11:12:15;7.50;99.90
2435;DHT22;1228;51.022;6.764;2023-12-20T11:14:44;7.50;99.90
2435;DHT22;1228;51.022;6.764;2023-12-20T11:17:12;7.50;99.90
2435;DHT22;1228;51.022;6.764;2023-12-20T11:22:24;7.60;99.90
2435;DHT22;1228;51.022;6.764;2023-12-20T11:24:51;7.60;99.90
2435;DHT22;1228;51.022;6.764;2023-12-20T11:27:19;7.70;99.90
2435;DHT22;1228;51.022;6.764;2023-12-20T11:29:58;7.70;99.90
2435;DHT22;1228;51.022;6.764;2023-12-20T11:34:57;7.80;99.90
2435;DHT22;1228;51.022;6.764;2023-12-20T11:37:29;7.90;99.90
2435;DHT22;1228;51.022;6.764;2023-12-20T11:39:55;7.90;99.90
2435;DHT22;1228;51.022;6.764;2023-12-20T11:42:24;7.90;99.90
2435;DHT22;1228;51.022;6.764;2023-12-20T11:44:50;7.90;99.90
2435;DHT22;1228;51.022;6.764;2023-12-20T11:47:16;7.90;99.90
2435;DHT22;1228;51.022;6.764;2023-12-20T11:49:46;7.80;99.90
2435;DHT22;1228;51.022;6.764;2023-12-20T11:52:12;7.80;99.90
2435;DHT22;1228;51.022;6.764;2023-12-20T11:54:38;7.70;99.90
2435;DHT22;1228;51.022;6.764;2023-12-20T11:57:04;7.70;99.90
2435;DHT22;1228;51.022;6.764;2023-12-20T11:59:31;7.70;99.90
2435;DHT22;1228;51.022;6.764;2023-12-20T12:01:56;7.70;99.90
2435;DHT22;1228;51.022;6.764;2023-12-20T12:04:26;7.70;99.90
2435;DHT22;1228;51.022;6.764;2023-12-20T12:06:55;7.70;99.90
2435;DHT22;1228;51.022;6.764;2023-12-20T12:09:21;7.70;99.90
2435;DHT22;1228;51.022;6.764;2023-12-20T12:11:46;7.70;99.90
2435;DHT22;1228;51.022;6.764;2023-12-20T12:14:12;7.70;99.90
2435;DHT22;1228;51.022;6.764;2023-12-20T12:16:38;7.60;99.90
2435;DHT22;1228;51.022;6.764;2023-12-20T12:19:03;7.70;99.90
2435;DHT22;1228;51.022;6.764;2023-12-20T12:21:29;7.60;99.90
2435;DHT22;1228;51.022;6.764;2023-12-20T12:24:06;7.60;99.90
2435;DHT22;1228;51.022;6.764;2023-12-20T12:26:32;7.70;99.90
2435;DHT22;1228;51.022;6.764;2023-12-20T12:28:57;7.70;99.90
2435;DHT22;1228;51.022;6.764;2023-12-20T12:31:23;7.70;99.90
2435;DHT22;1228;51.022;6.764;2023-12-20T12:33:51;7.70;99.90
2435;DHT22;1228;51.022;6.764;2023-12-20T12:36:16;7.80;99.90
2435;DHT22;1228;51.022;6.764;2023-12-20T12:38:43;7.90;99.90
2435;DHT22;1228;51.022;6.764;2023-12-20T12:41:10;7.90;99.90
2435;DHT22;1228;51.022;6.764;2023-12-20T12:43:37;7.90;99.90
2435;DHT22;1228;51.022;6.764;2023-12-20T12:46:03;7.90;99.90
2435;DHT22;1228;51.022;6.764;2023-12-20T12:48:29;7.90;99.90
2435;DHT22;1228;51.022;6.764;2023-12-20T12:51:01;7.80;99.90
2435;DHT22;1228;51.022;6.764;2023-12-20T12:53:26;7.80;99.90
2435;DHT22;1228;51.022;6.764;2023-12-20T12:55:53;7.80;99.90
2435;DHT22;1228;51.022;6.764;2023-12-20T12:58:20;7.80;99.90
2435;DHT22;1228;51.022;6.764;2023-12-20T13:00:45;7.80;99.90
2435;DHT22;1228;51.022;6.764;2023-12-20T13:05:39;8.10;99.90
2435;DHT22;1228;51.022;6.764;2023-12-20T13:08:05;7.90;99.90
2435;DHT22;1228;51.022;6.764;2023-12-20T13:10:30;7.90;99.90
2435;DHT22;1228;51.022;6.764;2023-12-20T13:12:56;8.00;99.90
2435;DHT22;1228;51.022;6.764;2023-12-20T13:15:22;8.00;99.90
2435;DHT22;1228;51.022;6.764;2023-12-20T13:17:47;7.90;99.90
2435;DHT22;1228;51.022;6.764;2023-12-20T13:20:13;7.90;99.90
2435;DHT22;1228;51.022;6.764;2023-12-20T13:22:38;7.90;99.90
2435;DHT22;1228;51.022;6.764;2023-12-20T13:25:04;7.80;99.90
2435;DHT22;1228;51.022;6.764;2023-12-20T13:27:30;7.80;99.90
2435;DHT22;1228;51.022;6.764;2023-12-20T13:29:56;7.80;99.90
2435;DHT22;1228;51.022;6.764;2023-12-20T13:32:21;7.70;99.90
2435;DHT22;1228;51.022;6.764;2023-12-20T13:34:47;7.70;99.90
2435;DHT22;1228;51.022;6.764;2023-12-20T13:37:13;7.60;99.90
2435;DHT22;1228;51.022;6.764;2023-12-20T13:39:39;7.60;99.90
2435;DHT22;1228;51.022;6.764;2023-12-20T13:42:05;7.60;99.90
2435;DHT22;1228;51.022;6.764;2023-12-20T13:44:31;7.60;99.90
2435;DHT22;1228;51.022;6.764;2023-12-20T13:46:56;7.60;99.90
2435;DHT22;1228;51.022;6.764;2023-12-20T13:49:22;7.60;99.90
2435;DHT22;1228;51.022;6.764;2023-12-20T13:51:51;7.60;99.90
2435;DHT22;1228;51.022;6.764;2023-12-20T13:54:16;7.60;99.90
2435;DHT22;1228;51.022;6.764;2023-12-20T13:56:45;7.60;99.90
2435;DHT22;1228;51.022;6.764;2023-12-20T13:59:11;7.70;99.90
2435;DHT22;1228;51.022;6.764;2023-12-20T14:01:38;7.70;99.90
2435;DHT22;1228;51.022;6.764;2023-12-20T14:04:03;7.70;99.90
2435;DHT22;1228;51.022;6.764;2023-12-20T14:06:29;7.70;99.90
2435;DHT22;1228;51.022;6.764;2023-12-20T14:08:55;7.70;99.90
2435;DHT22;1228;51.022;6.764;2023-12-20T14:11:21;7.70;99.90
2435;DHT22;1228;51.022;6.764;2023-12-20T14:13:46;7.70;99.90
2435;DHT22;1228;51.022;6.764;2023-12-20T14:16:12;7.70;99.90
2435;DHT22;1228;51.022;6.764;2023-12-20T14:18:38;7.80;99.90
2435;DHT22;1228;51.022;6.764;2023-12-20T14:21:05;7.80;99.90
2435;DHT22;1228;51.022;6.764;2023-12-20T14:23:32;7.80;99.90
2435;DHT22;1228;51.022;6.764;2023-12-20T14:25:59;7.80;99.90
2435;DHT22;1228;51.022;6.764;2023-12-20T14:28:25;7.80;99.90
2435;DHT22;1228;51.022;6.764;2023-12-20T14:30:51;7.90;99.90
2435;DHT22;1228;51.022;6.764;2023-12-20T14:33:16;7.90;99.90
2435;DHT22;1228;51.022;6.764;2023-12-20T14:35:42;8.00;99.90
2435;DHT22;1228;51.022;6.764;2023-12-20T14:38:09;8.00;99.90
2435;DHT22;1228;51.022;6.764;2023-12-20T14:40:35;8.00;99.90
2435;DHT22;1228;51.022;6.764;2023-12-20T14:43:00;8.10;99.90
2435;DHT22;1228;51.022;6.764;2023-12-20T14:45:29;8.10;99.90
2435;DHT22;1228;51.022;6.764;2023-12-20T14:47:55;8.20;99.90
2435;DHT22;1228;51.022;6.764;2023-12-20T14:50:21;8.20;99.90
2435;DHT22;1228;51.022;6.764;2023-12-20T14:52:47;8.10;99.90
2435;DHT22;1228;51.022;6.764;2023-12-20T14:55:12;8.10;99.90
2435;DHT22;1228;51.022;6.764;2023-12-20T14:57:38;8.20;99.90
2435;DHT22;1228;51.022;6.764;2023-12-20T15:00:05;8.20;99.90
2435;DHT22;1228;51.022;6.764;2023-12-20T15:02:30;8.10;99.90
2435;DHT22;1228;51.022;6.764;2023-12-20T15:04:57;8.20;99.90
2435;DHT22;1228;51.022;6.764;2023-12-20T15:07:22;8.10;99.90
2435;DHT22;1228;51.022;6.764;2023-12-20T15:09:48;8.10;99.90
2435;DHT22;1228;51.022;6.764;2023-12-20T15:12:14;8.00;99.90
2435;DHT22;1228;51.022;6.764;2023-12-20T15:14:40;8.00;99.90
2435;DHT22;1228;51.022;6.764;2023-12-20T15:17:06;8.00;99.90
2435;DHT22;1228;51.022;6.764;2023-12-20T15:19:31;8.00;99.90
2435;DHT22;1228;51.022;6.764;2023-12-20T15:21:57;7.90;99.90
2435;DHT22;1228;51.022;6.764;2023-12-20T15:24:25;7.90;99.90
2435;DHT22;1228;51.022;6.764;2023-12-20T15:26:54;7.80;99.90
2435;DHT22;1228;51.022;6.764;2023-12-20T15:29:20;7.70;99.90
2435;DHT22;1228;51.022;6.764;2023-12-20T15:31:46;7.70;99.90
2435;DHT22;1228;51.022;6.764;2023-12-20T15:34:13;7.70;99.90
2435;DHT22;1228;51.022;6.764;2023-12-20T15:36:38;7.70;99.90
2435;DHT22;1228;51.022;6.764;2023-12-20T15:39:04;7.70;99.90
2435;DHT22;1228;51.022;6.764;2023-12-20T15:41:30;7.70;99.90
2435;DHT22;1228;51.022;6.764;2023-12-20T15:43:56;7.70;99.90
2435;DHT22;1228;51.022;6.764;2023-12-20T15:46:22;7.80;99.90
2435;DHT22;1228;51.022;6.764;2023-12-20T15:48:47;7.70;99.90
2435;DHT22;1228;51.022;6.764;2023-12-20T15:51:14;7.80;99.90
2435;DHT22;1228;51.022;6.764;2023-12-20T15:53:40;7.80;99.90
2435;DHT22;1228;51.022;6.764;2023-12-20T15:56:06;7.70;99.90
2435;DHT22;1228;51.022;6.764;2023-12-20T15:58:32;7.80;99.90
2435;DHT22;1228;51.022;6.764;2023-12-20T16:00:59;7.80;99.90
2435;DHT22;1228;51.022;6.764;2023-12-20T16:03:25;7.70;99.90
2435;DHT22;1228;51.022;6.764;2023-12-20T16:05:50;7.70;99.90
2435;DHT22;1228;51.022;6.764;2023-12-20T16:08:16;7.70;99.90
2435;DHT22;1228;51.022;6.764;2023-12-20T16:10:41;7.70;99.90
2435;DHT22;1228;51.022;6.764;2023-12-20T16:13:07;7.60;99.90
2435;DHT22;1228;51.022;6.764;2023-12-20T16:15:34;7.60;99.90
2435;DHT22;1228;51.022;6.764;2023-12-20T16:18:00;7.60;99.90
2435;DHT22;1228;51.022;6.764;2023-12-20T16:20:25;7.50;99.90
2435;DHT22;1228;51.022;6.764;2023-12-20T16:22:51;7.50;99.90
2435;DHT22;1228;51.022;6.764;2023-12-20T16:25:17;7.50;99.90
2435;DHT22;1228;51.022;6.764;2023-12-20T16:27:43;7.50;99.90